Time;durP1;ratioP1;P1;durP2;ratioP2;P2;SDS_P1;SDS_P2;PMS_P1;PMS_P2;Temp;Humidity;BMP_temperature;BMP_pressure;BME280_temperature;BME280_humidity;BME280_pressure;Samples;Min_cycle;Max_cycle;Signal;HPM_P1;HPM_P2
2022/12/26 00:01:11;;;;;;;3.10;1.75;;;10.00;71.80;;;;;;5013337;28;20029;-76
2022/12/26 00:03:37;;;;;;;3.83;2.35;;;10.20;70.90;;;;;;5013114;28;20577;-76
2022/12/26 00:06:03;;;;;;;2.67;2.00;;;10.40;70.00;;;;;;5013215;28;20058;-75
2022/12/26 00:08:29;;;;;;;4.15;2.15;;;10.50;69.40;;;;;;5013029;28;20117;-75
2022/12/26 00:10:55;;;;;;;3.85;1.92;;;10.60;68.70;;;;;;5013286;28;20221;-76
2022/12/26 00:13:20;;;;;;;3.15;1.85;;;10.80;67.80;;;;;;5013320;28;20550;-75
2022/12/26 00:15:46;;;;;;;5.13;1.67;;;10.90;67.50;;;;;;5013218;28;20030;-74
2022/12/26 00:18:11;;;;;;;3.17;1.70;;;11.10;66.10;;;;;;5013008;28;20033;-75
2022/12/26 00:20:37;;;;;;;3.58;1.27;;;11.40;65.00;;;;;;5013154;28;20088;-75
2022/12/26 00:23:03;;;;;;;2.97;1.67;;;11.60;64.00;;;;;;5012989;28;20054;-78
2022/12/26 00:25:28;;;;;;;2.42;1.70;;;11.70;63.50;;;;;;5013024;28;20026;-75
2022/12/26 00:27:54;;;;;;;2.97;1.60;;;11.80;63.00;;;;;;5012873;28;20439;-75
2022/12/26 00:30:20;;;;;;;2.17;1.65;;;11.90;62.80;;;;;;5013370;28;20021;-76
2022/12/26 00:32:45;;;;;;;3.22;1.77;;;11.90;62.50;;;;;;5013400;28;20084;-85
2022/12/26 00:35:11;;;;;;;3.70;1.58;;;12.00;62.00;;;;;;5013504;28;20037;-82
2022/12/26 00:37:36;;;;;;;5.15;1.92;;;12.10;62.10;;;;;;5016228;28;20036;-82
2022/12/26 00:40:02;;;;;;;2.15;1.90;;;12.10;62.20;;;;;;5017203;28;20074;-84
2022/12/26 00:42:28;;;;;;;2.88;1.60;;;12.20;61.60;;;;;;5017148;28;20057;-84
2022/12/26 00:44:53;;;;;;;2.53;1.70;;;12.20;61.40;;;;;;5017610;28;20026;-90
2022/12/26 00:47:19;;;;;;;4.72;1.85;;;12.30;61.40;;;;;;5017565;28;20037;-85
2022/12/26 00:49:44;;;;;;;2.53;1.60;;;12.30;61.20;;;;;;5017134;28;20029;-81
2022/12/26 00:52:10;;;;;;;3.60;2.10;;;12.30;60.90;;;;;;5016269;28;20029;-75
2022/12/26 00:54:35;;;;;;;2.92;1.80;;;12.40;60.60;;;;;;5014816;28;20049;-74
2022/12/26 00:57:01;;;;;;;2.10;1.90;;;12.40;60.70;;;;;;5016163;28;20041;-75
2022/12/26 00:59:26;;;;;;;2.55;1.77;;;12.40;61.00;;;;;;5016052;28;20455;-75
2022/12/26 01:01:52;;;;;;;2.42;1.80;;;12.40;60.80;;;;;;5016267;28;20026;-80
2022/12/26 01:04:17;;;;;;;2.15;1.50;;;12.40;60.90;;;;;;5016515;28;20020;-79
2022/12/26 01:06:43;;;;;;;3.22;1.83;;;12.40;61.00;;;;;;5015727;28;20058;-77
2022/12/26 01:09:11;;;;;;;3.22;1.83;;;12.40;61.10;;;;;;5015842;28;20108;-75
2022/12/26 01:11:39;;;;;;;3.47;2.03;;;12.40;61.30;;;;;;5014605;28;20022;-75
2022/12/26 01:14:08;;;;;;;3.63;1.73;;;12.40;60.90;;;;;;5016047;28;20030;-76
2022/12/26 01:16:34;;;;;;;1.70;1.60;;;12.40;60.80;;;;;;5016493;28;20113;-76
2022/12/26 01:18:59;;;;;;;3.60;1.75;;;12.50;60.80;;;;;;5016751;28;20061;-76
2022/12/26 01:21:25;;;;;;;4.43;1.98;;;12.50;60.70;;;;;;5016040;28;20084;-79
2022/12/26 01:23:51;;;;;;;2.25;1.92;;;12.50;60.90;;;;;;5015671;28;20174;-76
2022/12/26 01:26:16;;;;;;;4.30;1.75;;;12.40;61.10;;;;;;5016520;28;20451;-84
2022/12/26 01:28:42;;;;;;;3.78;2.20;;;12.40;61.20;;;;;;5017185;28;20044;-88
2022/12/26 01:31:07;;;;;;;2.40;1.85;;;12.30;61.40;;;;;;5016966;28;20360;-85
2022/12/26 01:33:33;;;;;;;2.65;1.55;;;12.40;61.00;;;;;;5017814;28;20394;-91
2022/12/26 01:35:59;;;;;;;3.10;1.70;;;12.40;62.00;;;;;;5016766;28;20383;-77
2022/12/26 01:38:25;;;;;;;4.07;2.00;;;12.30;61.20;;;;;;5015534;28;20018;-75
2022/12/26 01:41:15;;;;;;;3.80;2.00;;;12.30;61.20;;;;;;5014873;28;20410;-75
2022/12/26 01:43:56;;;;;;;2.72;2.00;;;12.40;61.00;;;;;;5015227;28;20443;-76
2022/12/26 01:46:39;;;;;;;3.28;1.73;;;12.30;61.20;;;;;;5015250;28;20383;-75
2022/12/26 01:49:40;;;;;;;2.03;1.63;;;12.30;61.40;;;;;;5014860;28;20088;-78
2022/12/26 01:52:14;;;;;;;3.25;2.05;;;12.20;61.30;;;;;;4993484;28;20037;-75
2022/12/26 01:54:44;;;;;;;1.85;1.63;;;12.20;61.60;;;;;;5015046;28;20026;-75
2022/12/26 01:57:16;;;;;;;1.90;1.40;;;12.20;61.60;;;;;;5015104;28;20022;-76
2022/12/26 01:59:42;;;;;;;3.20;2.05;;;12.20;61.30;;;;;;5014934;28;20030;-75
2022/12/26 02:02:09;;;;;;;3.75;1.85;;;12.30;61.20;;;;;;5014942;28;20026;-76
2022/12/26 02:07:24;;;;;;;2.05;1.85;;;12.30;61.10;;;;;;5015875;28;20072;-76
2022/12/26 02:09:50;;;;;;;3.85;1.58;;;12.30;61.10;;;;;;5014799;28;20033;-75
2022/12/26 02:12:29;;;;;;;2.83;1.60;;;12.30;61.20;;;;;;5014769;28;20034;-76
2022/12/26 02:14:56;;;;;;;2.80;1.90;;;12.20;61.00;;;;;;5014630;28;20022;-76
2022/12/26 02:17:24;;;;;;;2.50;1.70;;;12.30;61.00;;;;;;5014463;28;20034;-75
2022/12/26 02:20:14;;;;;;;3.42;1.60;;;12.20;61.10;;;;;;5014591;28;20036;-76
2022/12/26 02:22:58;;;;;;;2.25;1.60;;;12.20;60.90;;;;;;5014606;28;20069;-76
2022/12/26 02:25:39;;;;;;;4.22;1.85;;;12.20;60.80;;;;;;5013961;28;20064;-76
2022/12/26 02:28:07;;;;;;;3.55;1.63;;;12.30;60.60;;;;;;5014442;28;20091;-76
2022/12/26 02:30:43;;;;;;;2.15;1.38;;;12.30;60.80;;;;;;5013180;28;20018;-76
2022/12/26 02:33:26;;;;;;;3.85;1.80;;;12.20;61.00;;;;;;5014329;28;20067;-76
2022/12/26 02:36:00;;;;;;;3.17;1.88;;;12.10;61.30;;;;;;5014285;28;20099;-76
2022/12/26 02:38:40;;;;;;;4.13;2.05;;;12.00;61.60;;;;;;5014268;28;20030;-76
2022/12/26 02:41:30;;;;;;;3.40;1.67;;;11.90;62.40;;;;;;5016488;28;20049;-76
2022/12/26 02:47:18;;;;;;;2.30;2.10;;;11.50;63.90;;;;;;5014606;28;20092;-75
2022/12/26 03:13:16;;;;;;;2.05;1.63;;;10.40;70.00;;;;;;5014357;28;20052;-76
2022/12/26 03:18:28;;;;;;;4.57;2.20;;;10.50;69.60;;;;;;5013503;28;20091;-76
2022/12/26 03:20:55;;;;;;;3.78;2.05;;;10.60;69.10;;;;;;5012309;28;20034;-76
2022/12/26 03:23:21;;;;;;;3.28;1.95;;;10.60;68.90;;;;;;5013609;28;20026;-77
2022/12/26 03:28:36;;;;;;;4.90;2.50;;;10.60;68.70;;;;;;5013571;28;20049;-76
2022/12/26 03:31:06;;;;;;;3.70;2.22;;;10.60;68.60;;;;;;5013522;28;20083;-76
2022/12/26 03:36:42;;;;;;;4.80;1.85;;;10.40;69.40;;;;;;5014211;28;20032;-75
2022/12/26 04:44:07;;;;;;;2.85;1.77;;;11.20;64.90;;;;;;5016539;28;20032;-76
2022/12/26 04:46:37;;;;;;;2.63;1.80;;;11.00;65.80;;;;;;5016286;28;20053;-76
2022/12/26 04:51:50;;;;;;;3.95;2.17;;;11.10;66.40;;;;;;5016197;28;20091;-76
2022/12/26 04:54:17;;;;;;;2.83;1.70;;;11.20;66.10;;;;;;5016380;28;20029;-76
2022/12/26 04:56:42;;;;;;;2.10;1.55;;;11.30;65.80;;;;;;5016087;28;20026;-75
2022/12/26 04:59:08;;;;;;;4.75;2.25;;;11.40;65.10;;;;;;5016216;28;20163;-76
2022/12/26 05:10:18;;;;;;;3.75;1.80;;;11.70;63.50;;;;;;5021030;28;20036;-75
2022/12/26 05:12:44;;;;;;;3.00;1.50;;;11.70;63.40;;;;;;5016257;28;20033;-76
2022/12/26 05:15:10;;;;;;;3.65;1.70;;;11.70;63.50;;;;;;5016332;28;20055;-75
2022/12/26 05:28:40;;;;;;;3.10;1.55;;;11.90;62.80;;;;;;5015626;28;20525;-76
2022/12/26 05:31:07;;;;;;;2.85;1.80;;;11.90;62.90;;;;;;5015559;28;20474;-76
2022/12/26 05:36:20;;;;;;;3.70;2.17;;;12.00;62.30;;;;;;5015367;28;20058;-76
2022/12/26 05:38:47;;;;;;;2.25;1.60;;;12.10;62.10;;;;;;5015369;28;20105;-76
2022/12/26 05:41:13;;;;;;;4.65;1.58;;;12.10;61.90;;;;;;5014946;28;20077;-76
2022/12/26 05:43:38;;;;;;;2.85;1.77;;;12.10;62.00;;;;;;5015151;28;20360;-76
2022/12/26 05:46:04;;;;;;;2.88;1.63;;;12.10;61.80;;;;;;5015248;28;20109;-76
2022/12/26 05:48:29;;;;;;;3.35;1.63;;;12.20;61.70;;;;;;5015180;28;20467;-76
2022/12/26 05:50:59;;;;;;;2.72;1.60;;;12.20;61.80;;;;;;5014959;28;20022;-77
2022/12/26 05:53:25;;;;;;;5.03;1.60;;;12.10;62.00;;;;;;5014921;28;20069;-76
2022/12/26 05:55:51;;;;;;;4.55;1.77;;;12.10;62.30;;;;;;5015202;28;20072;-77
2022/12/26 05:58:17;;;;;;;2.78;1.95;;;12.10;62.40;;;;;;5015159;28;20021;-77
2022/12/26 06:00:42;;;;;;;4.80;1.48;;;12.10;62.40;;;;;;5014910;28;20037;-77
2022/12/26 06:03:08;;;;;;;4.90;1.85;;;12.00;62.30;;;;;;5014981;28;20022;-77
2022/12/26 06:05:33;;;;;;;3.47;1.73;;;12.00;62.60;;;;;;5015073;28;20037;-77
2022/12/26 06:07:59;;;;;;;2.85;1.75;;;12.00;62.90;;;;;;5014775;28;20045;-87
2022/12/26 06:10:25;;;;;;;3.88;1.50;;;11.90;63.00;;;;;;5014977;28;20101;-77
2022/12/26 06:12:52;;;;;;;2.55;1.83;;;11.90;63.20;;;;;;5014639;28;20024;-76
2022/12/26 06:15:18;;;;;;;4.22;1.60;;;11.90;63.30;;;;;;5014963;28;20072;-76
2022/12/26 06:17:43;;;;;;;3.08;1.70;;;11.90;63.40;;;;;;5014732;28;20029;-76
2022/12/26 06:20:09;;;;;;;3.78;1.50;;;11.90;63.40;;;;;;5014922;28;20022;-77
2022/12/26 06:22:35;;;;;;;1.83;1.40;;;11.80;63.40;;;;;;5014937;28;20426;-76
2022/12/26 06:25:01;;;;;;;2.63;1.88;;;11.80;63.60;;;;;;5014486;28;20021;-83
2022/12/26 06:27:26;;;;;;;2.78;1.50;;;11.70;63.90;;;;;;5014322;28;20037;-77
2022/12/26 06:29:52;;;;;;;3.45;1.73;;;11.70;64.10;;;;;;5013205;28;20514;-76
2022/12/26 06:32:17;;;;;;;3.80;1.88;;;11.70;64.30;;;;;;5013090;28;20386;-76
2022/12/26 06:34:43;;;;;;;1.88;1.60;;;11.70;64.50;;;;;;5013805;28;20101;-76
2022/12/26 06:37:09;;;;;;;2.35;1.60;;;11.70;64.60;;;;;;5014197;28;20022;-76
2022/12/26 06:39:34;;;;;;;2.33;1.55;;;11.60;65.50;;;;;;5013915;28;20029;-76
2022/12/26 06:42:00;;;;;;;3.92;1.77;;;11.60;64.90;;;;;;5013401;28;20034;-76
2022/12/26 06:44:25;;;;;;;3.28;1.67;;;11.60;64.90;;;;;;5014067;28;20065;-76
2022/12/26 06:46:51;;;;;;;3.42;2.03;;;11.50;65.20;;;;;;5014021;28;20057;-76
2022/12/26 06:49:16;;;;;;;2.78;1.85;;;11.50;65.20;;;;;;5014517;28;20493;-75
2022/12/26 06:51:43;;;;;;;3.13;1.98;;;11.60;65.10;;;;;;5014115;28;20489;-76
2022/12/26 06:54:10;;;;;;;4.53;2.05;;;11.60;65.30;;;;;;5014009;28;20109;-75
2022/12/26 06:56:35;;;;;;;3.45;2.17;;;11.60;65.20;;;;;;5013688;28;20021;-76
2022/12/26 06:59:04;;;;;;;2.92;1.83;;;11.60;65.30;;;;;;5013974;28;20129;-76
2022/12/26 07:01:32;;;;;;;4.13;1.88;;;11.60;65.00;;;;;;5015002;28;20081;-75
2022/12/26 07:03:57;;;;;;;3.28;1.70;;;11.60;65.00;;;;;;5013871;28;20118;-76
2022/12/26 07:06:32;;;;;;;2.88;2.08;;;11.60;65.00;;;;;;5013888;28;20065;-91
2022/12/26 07:09:13;;;;;;;1.75;1.45;;;11.70;65.00;;;;;;5013939;28;20699;-75
2022/12/26 07:11:41;;;;;;;2.03;1.67;;;11.80;64.60;;;;;;5013509;28;20026;-77
2022/12/26 07:14:07;;;;;;;5.95;1.85;;;11.80;64.60;;;;;;5013695;28;20026;-75
2022/12/26 07:16:34;;;;;;;3.35;1.80;;;11.80;64.80;;;;;;5013666;28;20022;-75
2022/12/26 07:19:00;;;;;;;3.08;1.88;;;11.70;64.80;;;;;;5013744;28;20017;-75
2022/12/26 07:21:26;;;;;;;4.60;2.08;;;11.80;64.90;;;;;;5014281;28;20026;-74
2022/12/26 07:23:52;;;;;;;3.72;1.90;;;11.70;65.30;;;;;;5013057;28;20022;-75
2022/12/26 07:26:18;;;;;;;4.20;1.92;;;11.70;65.50;;;;;;5013931;28;20550;-75
2022/12/26 07:28:44;;;;;;;3.80;1.90;;;11.70;65.50;;;;;;5014735;28;19964;-75
2022/12/26 07:31:16;;;;;;;3.67;1.75;;;11.70;65.50;;;;;;5018190;28;20364;-75
2022/12/26 07:33:42;;;;;;;3.40;1.77;;;11.70;65.50;;;;;;5020334;28;20429;-76
2022/12/26 07:36:07;;;;;;;4.72;1.90;;;11.70;65.50;;;;;;5016806;28;20037;-75
2022/12/26 07:38:33;;;;;;;5.15;1.50;;;11.70;65.60;;;;;;5016004;28;20037;-76
2022/12/26 07:41:56;;;;;;;3.85;1.50;;;11.70;65.60;;;;;;5012090;28;20049;-76
2022/12/26 07:43:44;;;;;;;6.15;2.00;;;11.70;65.40;;;;;;5013476;28;20471;-84
2022/12/26 07:46:10;;;;;;;4.40;2.03;;;11.80;64.70;;;;;;5013499;28;20030;-76
2022/12/26 07:48:35;;;;;;;3.60;2.05;;;11.90;64.50;;;;;;5013240;28;20038;-77
2022/12/26 07:51:01;;;;;;;6.15;1.60;;;11.90;64.50;;;;;;5013393;28;20101;-86
2022/12/26 07:53:28;;;;;;;2.55;1.58;;;12.00;63.90;;;;;;5012382;28;20117;-75
2022/12/26 07:55:58;;;;;;;2.42;1.50;;;12.10;63.40;;;;;;5013795;28;20061;-76
2022/12/26 07:58:23;;;;;;;5.03;1.75;;;12.10;62.80;;;;;;5012927;28;20050;-75
2022/12/26 08:00:49;;;;;;;2.38;1.58;;;12.20;62.40;;;;;;5013153;28;20533;-75
2022/12/26 08:03:14;;;;;;;3.50;1.67;;;12.30;62.20;;;;;;5013050;28;20101;-76
2022/12/26 08:05:44;;;;;;;3.13;1.58;;;12.30;61.90;;;;;;5013039;28;20022;-75
2022/12/26 08:08:09;;;;;;;3.72;1.70;;;12.40;61.70;;;;;;5012969;28;20063;-75
2022/12/26 08:10:35;;;;;;;3.92;1.65;;;12.40;61.90;;;;;;5012905;28;20022;-76
2022/12/26 08:13:00;;;;;;;3.72;1.60;;;12.40;61.70;;;;;;5012962;28;20026;-75
2022/12/26 08:15:26;;;;;;;6.45;2.05;;;12.40;62.10;;;;;;5013285;28;20026;-75
2022/12/26 08:17:51;;;;;;;2.63;1.65;;;12.40;61.70;;;;;;5012772;28;20021;-75
2022/12/26 08:20:17;;;;;;;2.92;1.73;;;12.40;61.90;;;;;;5013097;28;20026;-75
2022/12/26 08:22:42;;;;;;;6.68;1.65;;;12.40;61.80;;;;;;5014154;28;20101;-75
2022/12/26 08:25:09;;;;;;;3.65;2.00;;;12.40;62.20;;;;;;5013274;28;20033;-80
2022/12/26 08:27:34;;;;;;;4.13;1.88;;;12.40;62.70;;;;;;5014483;28;20100;-78
2022/12/26 08:30:00;;;;;;;2.72;1.50;;;12.40;63.90;;;;;;5013500;28;20022;-81
2022/12/26 08:32:26;;;;;;;8.05;1.77;;;12.40;63.20;;;;;;5012850;28;20030;-84
2022/12/26 08:34:51;;;;;;;4.18;1.63;;;12.40;63.30;;;;;;5012799;28;20030;-82
2022/12/26 08:37:17;;;;;;;2.47;1.60;;;12.40;64.70;;;;;;5014442;28;20058;-80
2022/12/26 08:39:42;;;;;;;3.35;1.88;;;12.40;64.10;;;;;;5012942;28;20026;-82
2022/12/26 08:42:08;;;;;;;4.20;2.00;;;12.50;63.90;;;;;;5012971;28;20045;-82
2022/12/26 08:44:34;;;;;;;6.65;2.38;;;12.70;64.20;;;;;;5013407;28;20026;-85
2022/12/26 08:47:00;;;;;;;8.98;2.50;;;12.90;63.60;;;;;;5015606;28;20029;-84
2022/12/26 08:49:25;;;;;;;3.42;1.90;;;13.10;64.60;;;;;;5016434;28;20042;-84
2022/12/26 08:51:51;;;;;;;3.97;1.70;;;13.10;61.90;;;;;;5016916;28;20475;-85
2022/12/26 08:54:16;;;;;;;5.10;1.90;;;13.10;64.10;;;;;;5014978;28;20467;-85
2022/12/26 08:56:42;;;;;;;4.18;1.90;;;12.90;64.20;;;;;;5013385;28;20034;-85
2022/12/26 08:59:07;;;;;;;3.17;2.28;;;12.80;66.70;;;;;;5014926;28;20489;-84
2022/12/26 09:01:33;;;;;;;5.07;2.35;;;12.90;67.50;;;;;;5014900;28;20033;-82
2022/12/26 09:04:01;;;;;;;3.90;2.03;;;12.70;67.70;;;;;;5016204;28;20025;-83
2022/12/26 09:06:27;;;;;;;5.47;2.58;;;12.50;69.50;;;;;;5016272;28;20029;-83
2022/12/26 09:08:53;;;;;;;4.30;2.97;;;12.30;70.70;;;;;;5014883;28;20386;-80
2022/12/26 09:11:22;;;;;;;2.67;1.95;;;12.20;73.40;;;;;;5016040;28;20018;-82
2022/12/26 09:13:47;;;;;;;6.05;2.65;;;12.10;73.60;;;;;;5016113;28;20459;-83
2022/12/26 09:16:21;;;;;;;5.55;2.58;;;11.90;73.80;;;;;;5014878;28;20106;-83
2022/12/26 09:18:48;;;;;;;7.35;2.95;;;11.80;75.60;;;;;;5015980;28;20022;-83
2022/12/26 09:21:14;;;;;;;2.92;2.45;;;11.80;76.00;;;;;;5014458;28;20033;-83
2022/12/26 09:23:41;;;;;;;5.72;2.80;;;12.00;75.10;;;;;;5015842;28;20474;-83
2022/12/26 09:26:12;;;;;;;4.15;3.08;;;11.90;75.20;;;;;;5016407;28;20471;-90
2022/12/26 09:28:38;;;;;;;3.35;2.22;;;11.80;76.10;;;;;;5032802;28;20022;-83
2022/12/26 09:31:10;;;;;;;5.55;3.35;;;11.70;76.80;;;;;;5040681;28;20030;-82
2022/12/26 09:33:38;;;;;;;6.57;3.95;;;11.50;78.00;;;;;;5039298;28;20053;-81
2022/12/26 09:36:12;;;;;;;7.03;3.75;;;11.40;79.70;;;;;;5040004;28;20033;-78
2022/12/26 09:38:38;;;;;;;5.95;3.92;;;11.20;80.20;;;;;;5027912;28;20006;-76
2022/12/26 09:41:31;;;;;;;4.10;2.70;;;11.20;80.90;;;;;;5028078;28;20568;-90
2022/12/26 09:44:23;;;;;;;5.50;2.88;;;11.20;81.00;;;;;;5017009;28;20030;-88
2022/12/26 09:46:57;;;;;;;5.25;3.50;;;11.00;82.80;;;;;;5016896;28;20065;-89
2022/12/26 09:49:30;;;;;;;5.15;2.92;;;10.90;83.00;;;;;;5016907;28;20030;-81
2022/12/26 09:52:00;;;;;;;4.75;3.03;;;10.90;83.10;;;;;;5016606;28;20022;-83
2022/12/26 09:54:48;;;;;;;7.45;3.40;;;10.90;83.80;;;;;;5018728;28;20076;-87
2022/12/26 09:57:26;;;;;;;5.03;3.03;;;10.90;83.50;;;;;;5016126;28;20041;-88
2022/12/26 09:59:59;;;;;;;5.38;3.08;;;10.90;83.50;;;;;;5016929;28;20471;-89
2022/12/26 10:02:25;;;;;;;5.85;3.53;;;10.90;84.00;;;;;;5016821;28;20080;-84
2022/12/26 10:04:52;;;;;;;6.10;3.30;;;10.90;83.80;;;;;;5017303;28;20033;-86
2022/12/26 10:07:27;;;;;;;5.35;3.40;;;10.90;83.40;;;;;;5017413;28;20463;-88
2022/12/26 10:10:19;;;;;;;4.18;2.65;;;10.90;83.60;;;;;;5036069;28;20474;-77
2022/12/26 10:13:05;;;;;;;4.55;3.17;;;11.00;83.30;;;;;;5037976;28;20002;-78
2022/12/26 10:15:44;;;;;;;3.13;2.65;;;11.00;83.50;;;;;;5035672;28;20018;-79
2022/12/26 10:18:13;;;;;;;6.32;2.65;;;11.00;83.50;;;;;;5034011;28;20030;-78
2022/12/26 10:21:04;;;;;;;3.60;2.17;;;10.90;84.30;;;;;;5029306;28;20048;-76
2022/12/26 10:23:36;;;;;;;2.75;1.40;;;10.90;83.20;;;;;;5016357;28;20439;-76
2022/12/26 10:26:14;;;;;;;2.63;1.80;;;10.90;83.00;;;;;;5015152;28;20072;-79
2022/12/26 10:29:00;;;;;;;3.72;1.63;;;10.80;83.30;;;;;;5014410;28;20471;-77
2022/12/26 10:31:37;;;;;;;3.97;2.08;;;10.80;83.40;;;;;;5014742;28;20117;-77
2022/12/26 10:34:24;;;;;;;1.50;1.30;;;10.70;83.20;;;;;;5014724;28;20030;-79
2022/12/26 10:37:01;;;;;;;2.17;1.58;;;10.80;83.00;;;;;;5014368;28;20415;-75
2022/12/26 10:39:47;;;;;;;2.13;1.45;;;10.80;82.20;;;;;;5013322;28;20026;-76
2022/12/26 10:42:39;;;;;;;2.60;1.70;;;10.80;81.80;;;;;;5020015;28;20038;-75
2022/12/26 10:45:19;;;;;;;1.60;0.90;;;10.80;82.20;;;;;;5028377;28;20018;-75
2022/12/26 10:47:47;;;;;;;1.75;1.05;;;10.80;82.40;;;;;;5019384;28;20034;-76
2022/12/26 10:50:22;;;;;;;1.13;0.88;;;10.80;82.40;;;;;;5013420;28;20029;-75
2022/12/26 10:52:49;;;;;;;2.72;1.60;;;10.70;83.50;;;;;;5008301;28;20024;-77
2022/12/26 10:55:17;;;;;;;2.50;1.58;;;10.60;84.60;;;;;;5013029;28;20021;-75
2022/12/26 10:57:49;;;;;;;6.38;3.67;;;10.60;85.00;;;;;;5011918;28;20032;-87
2022/12/26 11:00:20;;;;;;;4.13;2.97;;;10.50;87.00;;;;;;5009863;28;20022;-80
2022/12/26 11:03:08;;;;;;;3.95;2.08;;;10.40;86.70;;;;;;5013741;28;20056;-78
2022/12/26 11:05:37;;;;;;;3.63;1.63;;;10.30;85.50;;;;;;5003889;28;20390;-74
2022/12/26 11:08:19;;;;;;;0.95;0.77;;;10.30;84.40;;;;;;5008118;28;20045;-75
2022/12/26 11:11:07;;;;;;;2.17;1.40;;;10.20;83.50;;;;;;5012796;28;20383;-77
2022/12/26 11:13:45;;;;;;;1.23;1.08;;;10.20;84.00;;;;;;5009888;28;20068;-74
2022/12/26 11:16:11;;;;;;;1.60;1.00;;;10.20;84.40;;;;;;5007540;28;20061;-75
2022/12/26 11:18:46;;;;;;;2.17;1.20;;;10.00;84.80;;;;;;5012721;28;20473;-74
2022/12/26 11:21:16;;;;;;;2.97;1.57;;;10.10;85.60;;;;;;5011571;28;20056;-76
2022/12/26 11:23:42;;;;;;;2.38;1.05;;;10.10;86.40;;;;;;5014275;28;20772;-76
2022/12/26 11:26:20;;;;;;;2.42;1.02;;;10.00;86.30;;;;;;5013570;28;20037;-78
2022/12/26 11:28:45;;;;;;;1.33;1.13;;;10.00;86.40;;;;;;5012316;28;20029;-79
2022/12/26 11:31:25;;;;;;;2.45;1.50;;;9.90;85.70;;;;;;5012451;28;20033;-78
2022/12/26 11:33:51;;;;;;;1.10;1.00;;;10.00;86.10;;;;;;5007537;28;20522;-77
2022/12/26 11:36:24;;;;;;;2.70;1.10;;;9.90;85.60;;;;;;5012434;28;20462;-77
2022/12/26 11:38:57;;;;;;;2.63;1.00;;;9.90;85.90;;;;;;5012880;28;20528;-77
2022/12/26 11:41:32;;;;;;;2.38;0.82;;;9.90;84.20;;;;;;5013805;28;20476;-82
2022/12/26 11:44:12;;;;;;;1.07;0.50;;;9.90;83.30;;;;;;5011530;28;20490;-76
2022/12/26 11:46:37;;;;;;;3.38;0.60;;;9.90;82.50;;;;;;5012866;28;20533;-76
2022/12/26 11:49:04;;;;;;;3.60;0.75;;;10.00;82.60;;;;;;5012152;28;20030;-80
2022/12/26 11:51:39;;;;;;;3.60;1.30;;;10.20;83.10;;;;;;5008072;28;20077;-76
2022/12/26 11:54:19;;;;;;;1.80;1.38;;;10.20;82.20;;;;;;5014650;28;20049;-76
2022/12/26 11:56:45;;;;;;;1.67;0.73;;;10.30;82.40;;;;;;5013009;28;20034;-76
2022/12/26 11:59:22;;;;;;;2.35;0.80;;;10.30;80.00;;;;;;5011662;28;20032;-76
2022/12/26 12:02:12;;;;;;;1.30;0.80;;;10.30;79.90;;;;;;5012459;28;20530;-75
2022/12/26 12:04:37;;;;;;;0.80;0.70;;;10.20;79.70;;;;;;5007188;28;20060;-76
2022/12/26 12:07:14;;;;;;;1.30;0.80;;;10.30;80.20;;;;;;5012110;28;20074;-78
2022/12/26 12:10:06;;;;;;;1.05;0.50;;;10.20;79.90;;;;;;4995298;28;20031;-75
2022/12/26 12:13:08;;;;;;;0.63;0.55;;;10.20;79.60;;;;;;4996277;28;20057;-80
2022/12/26 12:15:50;;;;;;;0.70;0.50;;;10.30;80.00;;;;;;4995885;28;20026;-76
2022/12/26 12:18:35;;;;;;;2.30;0.60;;;10.30;77.90;;;;;;4996425;28;20029;-76
2022/12/26 12:21:27;;;;;;;0.28;0.20;;;10.20;77.30;;;;;;5004934;28;20018;-76
2022/12/26 12:24:30;;;;;;;0.75;0.30;;;10.20;77.00;;;;;;5011077;28;20048;-76
2022/12/26 12:27:02;;;;;;;2.13;0.52;;;10.20;76.60;;;;;;5014545;28;20030;-76
2022/12/26 12:29:39;;;;;;;0.50;0.30;;;10.20;76.70;;;;;;5014358;28;20033;-75
2022/12/26 12:32:30;;;;;;;2.72;0.52;;;10.20;77.00;;;;;;5013750;28;20410;-77
2022/12/26 12:35:18;;;;;;;0.57;0.32;;;10.10;77.50;;;;;;5017012;28;20049;-75
2022/12/26 12:38:11;;;;;;;0.63;0.20;;;10.10;78.30;;;;;;5017500;28;20022;-76
2022/12/26 12:40:51;;;;;;;0.20;0.20;;;10.00;78.50;;;;;;5016347;28;20046;-76
2022/12/26 12:43:29;;;;;;;0.98;0.40;;;10.00;78.90;;;;;;5016296;28;20017;-76
2022/12/26 12:46:12;;;;;;;1.23;0.43;;;9.90;79.20;;;;;;5016244;28;20030;-75
2022/12/26 12:48:50;;;;;;;0.45;0.45;;;9.90;77.90;;;;;;5016149;28;20044;-75
2022/12/26 12:51:36;;;;;;;0.73;0.40;;;9.90;78.90;;;;;;5016111;28;20021;-77
2022/12/26 12:54:27;;;;;;;0.70;0.45;;;9.80;78.90;;;;;;5016662;28;20073;-75
2022/12/26 12:57:07;;;;;;;0.77;0.38;;;9.80;79.00;;;;;;5013039;28;20041;-76
2022/12/26 12:59:50;;;;;;;0.88;0.40;;;9.80;78.80;;;;;;5006543;28;20045;-74
2022/12/26 13:02:44;;;;;;;0.45;0.30;;;9.80;78.40;;;;;;5003312;28;20080;-75
2022/12/26 13:05:27;;;;;;;0.60;0.40;;;9.80;79.40;;;;;;5015802;28;20026;-77
2022/12/26 13:08:00;;;;;;;1.00;0.40;;;9.80;78.80;;;;;;5014612;28;20113;-74
2022/12/26 13:10:29;;;;;;;0.95;0.50;;;9.80;79.50;;;;;;5014612;28;20022;-76
2022/12/26 13:12:56;;;;;;;0.32;0.30;;;9.80;79.20;;;;;;5015348;28;20497;-74
2022/12/26 13:15:37;;;;;;;1.17;0.50;;;9.80;79.60;;;;;;5015702;28;20034;-75
2022/12/26 13:18:11;;;;;;;0.50;0.40;;;9.80;80.00;;;;;;5015625;28;20117;-75
2022/12/26 13:20:45;;;;;;;2.00;0.80;;;9.80;79.00;;;;;;5015631;28;20026;-75
2022/12/26 13:26:14;;;;;;;1.13;0.70;;;9.80;78.00;;;;;;5016705;28;20504;-74
2022/12/26 13:28:50;;;;;;;1.13;0.50;;;9.80;79.50;;;;;;5015908;28;20076;-76
2022/12/26 13:31:15;;;;;;;;;;;9.80;78.80;;;;;;5014792;28;20026;-76
2022/12/26 13:33:42;;;;;;;;;;;9.70;78.70;;;;;;5015905;28;19975;-77
2022/12/26 13:36:07;;;;;;;;;;;9.60;79.50;;;;;;5015786;28;19968;-78
2022/12/26 13:38:55;;;;;;;1.50;0.70;;;9.60;78.80;;;;;;5015211;28;20362;-77
2022/12/26 13:44:17;;;;;;;1.02;0.43;;;9.60;78.70;;;;;;5015172;28;20144;-77
2022/12/26 13:46:46;;;;;;;0.30;0.30;;;9.60;79.30;;;;;;5015192;28;20029;-78
2022/12/26 13:49:37;;;;;;;0.55;0.47;;;9.70;78.30;;;;;;5014845;28;20034;-76
2022/12/26 13:52:14;;;;;;;0.30;0.30;;;9.70;78.50;;;;;;5014978;28;20025;-74
2022/12/26 13:54:46;;;;;;;1.20;0.35;;;9.70;78.00;;;;;;5015265;28;20026;-73
2022/12/26 13:57:22;;;;;;;0.30;0.30;;;9.60;77.30;;;;;;5015060;28;20034;-75
2022/12/26 13:59:50;;;;;;;0.93;0.65;;;9.60;78.20;;;;;;5015048;28;20022;-81
2022/12/26 14:02:48;;;;;;;1.70;0.43;;;9.60;78.20;;;;;;5014909;28;20026;-74
2022/12/26 14:05:29;;;;;;;1.08;0.60;;;9.60;77.30;;;;;;5013868;28;20045;-75
2022/12/26 14:08:32;;;;;;;2.42;0.43;;;9.60;78.10;;;;;;5008828;28;20022;-73
2022/12/26 14:11:18;;;;;;;0.20;0.20;;;9.60;78.00;;;;;;5013712;28;20014;-73
2022/12/26 14:14:04;;;;;;;0.35;0.20;;;9.50;78.40;;;;;;5013236;28;20113;-79
2022/12/26 14:16:39;;;;;;;;;;;9.50;78.70;;;;;;5013894;28;20100;-76
2022/12/26 14:19:37;;;;;;;0.45;0.20;;;9.60;77.90;;;;;;5018926;28;19905;-75
2022/12/26 14:22:26;;;;;;;2.22;0.30;;;9.50;78.80;;;;;;5017231;28;20120;-76
2022/12/26 14:25:28;;;;;;;1.77;1.02;;;9.60;78.80;;;;;;5011129;28;20024;-75
2022/12/26 14:28:18;;;;;;;0.28;0.20;;;9.50;77.50;;;;;;5021931;28;20437;-75
2022/12/26 14:31:16;;;;;;;0.40;0.40;;;9.50;77.10;;;;;;5015699;28;20029;-75
2022/12/26 14:34:00;;;;;;;1.08;0.57;;;9.60;77.40;;;;;;5017389;28;20041;-76
2022/12/26 14:36:47;;;;;;;0.32;0.30;;;9.60;77.20;;;;;;5008254;28;20542;-76
2022/12/26 14:39:21;;;;;;;0.25;0.25;;;9.60;77.40;;;;;;5018139;28;20092;-74
2022/12/26 14:44:55;;;;;;;0.43;0.43;;;9.60;76.60;;;;;;5020441;28;20048;-75
2022/12/26 14:47:47;;;;;;;0.73;0.50;;;9.60;76.90;;;;;;5011984;28;20037;-75
2022/12/26 14:50:31;;;;;;;1.35;0.43;;;9.60;76.50;;;;;;5011558;28;20037;-75
2022/12/26 14:53:21;;;;;;;3.08;0.60;;;9.70;77.00;;;;;;5011921;28;20046;-73
2022/12/26 14:55:56;;;;;;;0.65;0.45;;;9.60;76.70;;;;;;5004582;28;20048;-75
2022/12/26 14:58:46;;;;;;;1.27;0.82;;;9.70;76.30;;;;;;5012934;28;20104;-75
2022/12/26 15:01:11;;;;;;;3.53;1.58;;;9.70;75.80;;;;;;5010887;28;20049;-74
2022/12/26 15:03:46;;;;;;;2.08;0.95;;;9.70;76.20;;;;;;5013138;28;20502;-75
2022/12/26 15:06:17;;;;;;;2.50;1.52;;;9.70;76.20;;;;;;5014008;28;20108;-74
2022/12/26 15:09:05;;;;;;;3.33;2.00;;;9.70;76.00;;;;;;5013469;28;20490;-75
2022/12/26 15:11:45;;;;;;;1.38;0.45;;;9.70;76.10;;;;;;5013765;28;20592;-75
2022/12/26 15:14:53;;;;;;;0.77;0.47;;;9.70;76.20;;;;;;5013508;28;20073;-74
2022/12/26 15:17:56;;;;;;;0.80;0.50;;;9.80;75.90;;;;;;5013661;28;20498;-74
2022/12/26 15:20:37;;;;;;;2.25;0.77;;;9.70;76.40;;;;;;5013522;28;20542;-74
2022/12/26 15:23:42;;;;;;;0.88;0.60;;;9.70;77.00;;;;;;5013638;28;20018;-75
2022/12/26 15:26:18;;;;;;;0.75;0.60;;;9.70;77.60;;;;;;5013699;28;20057;-75
2022/12/26 15:29:14;;;;;;;0.85;0.38;;;9.60;78.10;;;;;;5013285;28;20034;-75
2022/12/26 15:32:04;;;;;;;0.60;0.60;;;9.60;77.70;;;;;;5013136;28;20076;-75
2022/12/26 15:34:45;;;;;;;0.65;0.60;;;9.60;78.00;;;;;;5013520;28;20029;-74
2022/12/26 15:37:42;;;;;;;1.17;0.70;;;9.60;77.80;;;;;;5013806;28;20026;-74